ENTCENNA

Guest
Details From ENTC - Tromso Langnes
To ENNA - BANAK
Flight Number -
Tags generated
Created
Modified
Stats Distance 127 nm / 236 km
Max Altitude 7,100 ft / 2,164 m
Waypoints 3
Social Downloads 5
Likes 0
Share

Download

Looking for another format? Having issues loading an existing format? Contact us
Advertisement - Login to hide

Notes

Basic altitude profile: - Ascent Rate: 2500ft/min - Ascent Speed: 250kts - Cruise Altitude: 35000ft - Cruise Speed: 420kts - Descent Rate: 1500ft/min - Descent Speed: 250kts Options: - Use NATs: yes - Use PACOTS: yes - Use low airways: yes - Use high airways: no

Route

ENTC ATA ENNA

ID Type Via Altitude (ft/m) Position (lat/lon) Dist (leg/tot) Name
O ENTC APT - 0 / 0 69.68287 / 18.91936 - / 0 nm Tromso Langnes
ATA VOR - 7,100 / 2,164 69.97758 / 23.37182 93 / 93 nm ALTA VOR-DME
O ENNA APT - 0 / 0 70.06881 / 24.97349 33 / 127 nm BANAK

Altitude Profile

Advertisement - Login to hide

ENTC

Details ICAO ENTC (TOS)
Name Tromso Langnes
Region Norway
Timezone Europe/Oslo (UTC+2.0)
Stats Elevation 28 ft / 9 m (AMSL)
Location 69.682900° 18.918600°
Runways 1
Magnetic Variation 9.364° E

METAR

ENTC 050220Z 02005KT CAVOK 06/04 Q1010 RMK WIND 2600FT 18020KT

Decode

TAF

TAF ENTC 042300Z 0500/0524 02005KT CAVOK

Decode

Departure Runways

ID Width Length Bearing (true/mag) Surface Threshold Overrun Markings Lighting
18 148 ft / 45 m 7,520 ft / 2,292 m 193.07° / 183.70° ASPHALT 971 ft / 296 m 0 ft / 0 m PREC-APP CENTERLINE EDGE THRESHOLD MALSF
36 148 ft / 45 m 7,520 ft / 2,292 m 13.05° / 3.69° ASPHALT 0 ft / 0 m 0 ft / 0 m PREC-APP CENTERLINE EDGE THRESHOLD MALSF

ENNA

Details ICAO ENNA (LKL)
Name BANAK
Region Norway
Timezone Unknown
Stats Elevation 25 ft / 8 m (AMSL)
Location 70.068800° 24.973500°
Runways 1
Magnetic Variation 12.944° E

METAR

ENNA 050220Z AUTO 19011KT 9999 OVC013/// 08/05 Q1014 RMK WIND 1800FT 16019KT

Decode

TAF

TAF TAF ENNA 042300Z 0500/0524 18010KT 9999 FEW010 BKN018 TEMPO 0500/0506 BKN009 BECMG 0510/0513 01005KT

Decode

Destination Runways

ID Width Length Bearing (true/mag) Surface Threshold Overrun Markings Lighting
17 148 ft / 45 m 9,104 ft / 2,775 m 175.43° / 162.49° ASPHALT 302 ft / 92 m 0 ft / 0 m APP EDGE THRESHOLD MALS
35 148 ft / 45 m 9,104 ft / 2,775 m 355.44° / 342.49° ASPHALT 302 ft / 92 m 0 ft / 0 m PREC-APP EDGE THRESHOLD MALS

Approach Navaids

Runway Type Ident Frequency Range Bearing (true/mag) Slope Elevation
17 LOC-LOC BK 109.35 MHz 18 nm / 33 km 175.43° / 162.49 ° - 25 ft / 8 m (AMSL)
17 DME BK 109.35 MHz 18 nm / 33 km - - 55 ft / 17 m (AMSL)
35 GS BA 108.30 MHz 10 nm / 19 km 355.87° / 342.92 ° 3.50° 25 ft / 8 m (AMSL)
35 LOC-ILS BA 108.30 MHz 18 nm / 33 km 355.43° / 342.48 ° - 25 ft / 8 m (AMSL)
35 OM OM - - 355.43° / 342.49 ° - 25 ft / 8 m (AMSL)
35 MM MM - - 355.43° / 342.49 ° - 25 ft / 8 m (AMSL)

Popular Alternatives